Arverne, New York
Current Conditions -  °F | °C
As of 11:51 AM on Saturday 22 Nov 2014 (Local Time) from KJFK Reporting Station
Few Clouds Few Clouds  
Wind Chill: 30°   Ceiling: Unl
Heat Index: 39°   Visibility: 10mi
Dew Point: 14°   Wind: 18mph
Humidity: 36%   Direction: 230°SW
Pressure: 30.41"   Gusts: NA
Location:  40.59°N, 73.8°W
Report Text: KJFK 221651Z 23016KT 10SM FEW260 04/M10 A3041 RMK AO2 SLP297 T00391100
Loading
Personal Weather Stations






























Interactive Weather Map New forecast layout! Learn more

10-Day Weather Forecast

Advertisements
Track Severe Weather on mobile